createdAt,value
2018-09-03T00:01:12.039Z,17.00
2018-09-03T00:03:40.636Z,16.97
2018-09-03T00:06:09.320Z,16.99
2018-09-03T00:08:37.891Z,16.98
2018-09-03T00:11:06.532Z,16.93
2018-09-03T00:13:35.511Z,16.99
2018-09-03T00:16:04.151Z,17.08
2018-09-03T00:18:32.761Z,17.03
2018-09-03T00:21:02.215Z,17.05
2018-09-03T00:23:30.900Z,16.97
2018-09-03T00:25:59.715Z,16.94
2018-09-03T00:28:28.327Z,16.85
2018-09-03T00:31:01.091Z,16.81
2018-09-03T00:33:35.007Z,16.83
2018-09-03T00:36:09.011Z,16.84
2018-09-03T00:38:42.969Z,16.78
2018-09-03T00:41:16.783Z,16.73
2018-09-03T00:43:50.818Z,16.67
2018-09-03T00:46:24.707Z,16.72
2018-09-03T00:48:53.578Z,16.65
2018-09-03T00:51:22.255Z,16.61
2018-09-03T00:53:50.855Z,16.52
2018-09-03T00:56:19.596Z,16.38
2018-09-03T00:58:48.234Z,16.34
2018-09-03T01:01:16.878Z,16.28
2018-09-03T01:03:46.840Z,16.15
2018-09-03T01:06:15.423Z,16.08
2018-09-03T01:08:44.056Z,15.96
2018-09-03T01:11:12.716Z,15.91
2018-09-03T01:13:41.360Z,15.94
2018-09-03T01:16:10.053Z,15.96
2018-09-03T01:18:41.314Z,15.93
2018-09-03T01:21:10.919Z,15.96
2018-09-03T01:23:39.667Z,15.90
2018-09-03T01:26:08.876Z,15.81
2018-09-03T01:28:37.486Z,15.71
2018-09-03T01:31:06.244Z,15.78
2018-09-03T01:33:35.034Z,15.77
2018-09-03T01:36:03.659Z,15.82
2018-09-03T01:38:32.312Z,15.87
2018-09-03T01:41:01.056Z,15.90
2018-09-03T01:43:29.668Z,15.94
2018-09-03T01:45:58.261Z,15.98
2018-09-03T01:48:27.186Z,16.01
2018-09-03T01:50:55.834Z,16.06
2018-09-03T01:53:24.481Z,16.14
2018-09-03T01:55:53.159Z,16.16
2018-09-03T01:58:22.092Z,16.20
2018-09-03T02:00:50.821Z,16.25
2018-09-03T02:03:19.507Z,16.24
2018-09-03T02:05:48.281Z,16.22
2018-09-03T02:08:17.224Z,16.20
2018-09-03T02:10:46.107Z,16.31
2018-09-03T02:13:14.823Z,16.28
2018-09-03T02:15:43.497Z,16.24
2018-09-03T02:18:12.183Z,16.28
2018-09-03T02:20:42.021Z,16.29
2018-09-03T02:23:10.680Z,16.29
2018-09-03T02:25:39.437Z,16.28
2018-09-03T02:28:08.029Z,16.33
2018-09-03T02:30:39.049Z,16.40
2018-09-03T02:33:08.080Z,16.41
2018-09-03T02:35:36.714Z,16.44
2018-09-03T02:38:05.400Z,16.47
2018-09-03T02:40:34.045Z,16.49
2018-09-03T02:43:02.711Z,16.46
2018-09-03T02:45:31.535Z,16.34
2018-09-03T02:48:00.362Z,16.36
2018-09-03T02:50:29.151Z,16.35
2018-09-03T02:52:57.814Z,16.36
2018-09-03T02:55:26.926Z,16.36
2018-09-03T02:57:55.579Z,16.39
2018-09-03T03:00:26.847Z,16.43
2018-09-03T03:02:56.827Z,16.39
2018-09-03T03:05:25.750Z,16.43
2018-09-03T03:07:54.984Z,16.40
2018-09-03T03:10:23.666Z,16.38
2018-09-03T03:12:52.328Z,16.39
2018-09-03T03:15:20.970Z,16.32
2018-09-03T03:17:49.674Z,16.35
2018-09-03T03:20:18.395Z,16.41
2018-09-03T03:22:47.059Z,16.39
2018-09-03T03:25:15.686Z,16.35
2018-09-03T03:27:44.302Z,16.35
2018-09-03T03:30:12.983Z,16.46
2018-09-03T03:32:41.627Z,16.53
2018-09-03T03:35:11.566Z,16.50
2018-09-03T03:37:44.756Z,16.56
2018-09-03T03:40:13.578Z,16.58
2018-09-03T03:42:42.666Z,16.61
2018-09-03T03:45:11.593Z,16.62
2018-09-03T03:47:40.734Z,16.56
2018-09-03T03:50:09.967Z,16.54
2018-09-03T03:52:38.796Z,16.50
2018-09-03T03:55:08.071Z,16.47
2018-09-03T03:57:37.755Z,16.33
2018-09-03T04:00:06.697Z,16.28
2018-09-03T04:02:35.426Z,16.20
2018-09-03T04:05:04.112Z,16.09
2018-09-03T04:07:32.927Z,16.06
2018-09-03T04:10:01.843Z,16.06
2018-09-03T04:12:30.474Z,15.99
2018-09-03T04:14:59.218Z,15.96
2018-09-03T04:17:27.845Z,15.99
2018-09-03T04:20:01.645Z,15.97
2018-09-03T04:22:30.739Z,15.94
2018-09-03T04:24:59.392Z,15.97
2018-09-03T04:27:28.042Z,15.93
2018-09-03T04:29:56.826Z,15.97
2018-09-03T04:32:25.452Z,16.06
2018-09-03T04:34:54.345Z,16.13
2018-09-03T04:37:22.981Z,16.19
2018-09-03T04:39:51.848Z,16.27
2018-09-03T04:42:20.512Z,16.23
2018-09-03T04:44:49.430Z,16.27
2018-09-03T04:47:18.068Z,16.28
2018-09-03T04:49:46.923Z,16.35
2018-09-03T04:52:15.574Z,16.42
2018-09-03T04:54:44.269Z,16.31
2018-09-03T04:57:13.076Z,16.30
2018-09-03T04:59:41.665Z,16.25
2018-09-03T05:02:10.427Z,16.24
2018-09-03T05:04:39.080Z,16.21
2018-09-03T05:07:07.834Z,16.25
2018-09-03T05:09:36.921Z,16.33
2018-09-03T05:12:05.559Z,16.42
2018-09-03T05:14:34.235Z,16.45
2018-09-03T05:17:03.911Z,16.42
2018-09-03T05:19:32.642Z,16.41
2018-09-03T05:22:01.398Z,16.48
2018-09-03T05:24:30.035Z,16.54
2018-09-03T05:26:58.741Z,16.52
2018-09-03T05:29:27.425Z,16.55
2018-09-03T05:31:56.107Z,16.61
2018-09-03T05:34:24.733Z,16.64
2018-09-03T05:36:53.387Z,16.66
2018-09-03T05:39:22.014Z,16.77
2018-09-03T05:41:50.690Z,16.81
2018-09-03T05:44:19.332Z,16.81
2018-09-03T05:46:47.972Z,16.81
2018-09-03T05:49:16.862Z,16.86
2018-09-03T05:51:45.889Z,16.99
2018-09-03T05:54:14.551Z,17.00
2018-09-03T05:56:43.543Z,17.10
2018-09-03T05:59:12.537Z,17.19
2018-09-03T06:01:41.177Z,17.30
2018-09-03T06:04:10.081Z,17.44
2018-09-03T06:06:38.791Z,17.52
2018-09-03T06:09:09.643Z,17.60
2018-09-03T06:11:38.563Z,17.67
2018-09-03T06:14:07.535Z,17.58
2018-09-03T06:16:36.181Z,17.89
2018-09-03T06:19:04.901Z,17.86
2018-09-03T06:21:33.579Z,17.97
2018-09-03T06:24:02.503Z,17.92
2018-09-03T06:26:31.243Z,17.85
2018-09-03T06:29:00.277Z,17.80
2018-09-03T06:31:28.902Z,17.80
2018-09-03T06:33:57.603Z,17.84
2018-09-03T06:36:26.220Z,17.79
2018-09-03T06:38:54.885Z,17.92
2018-09-03T06:41:23.614Z,18.00
2018-09-03T06:43:52.393Z,18.23
2018-09-03T06:46:20.986Z,18.29
2018-09-03T06:48:50.014Z,18.21
2018-09-03T06:51:18.721Z,18.41
2018-09-03T06:53:47.709Z,18.53
2018-09-03T06:56:16.643Z,18.43
2018-09-03T06:58:45.247Z,18.58
2018-09-03T07:01:14.226Z,18.41
2018-09-03T07:03:43.609Z,18.16
2018-09-03T07:06:12.346Z,18.22
2018-09-03T07:08:41.698Z,18.25
2018-09-03T07:11:11.697Z,18.03
2018-09-03T07:13:40.479Z,18.03
2018-09-03T07:16:09.545Z,18.28
2018-09-03T07:18:38.270Z,18.43
2018-09-03T07:21:06.969Z,18.66
2018-09-03T07:23:35.842Z,18.76
2018-09-03T07:26:04.459Z,18.92
2018-09-03T07:28:33.174Z,19.21
2018-09-03T07:31:01.805Z,19.27
2018-09-03T07:33:30.471Z,19.09
2018-09-03T07:35:59.061Z,19.14
2018-09-03T07:38:27.809Z,19.16
2018-09-03T07:40:56.546Z,19.21
2018-09-03T07:43:25.542Z,19.32
2018-09-03T07:45:54.150Z,19.25
2018-09-03T07:48:22.773Z,19.07
2018-09-03T07:50:51.405Z,19.23
2018-09-03T07:53:20.100Z,19.15
2018-09-03T07:55:48.724Z,19.26
2018-09-03T07:58:17.549Z,19.53
2018-09-03T08:00:46.160Z,19.46
2018-09-03T08:03:14.839Z,19.87
2018-09-03T08:05:43.476Z,20.09
2018-09-03T08:08:12.063Z,20.05
2018-09-03T08:10:40.714Z,19.96
2018-09-03T08:13:09.423Z,20.04
2018-09-03T08:15:38.047Z,19.99
2018-09-03T08:18:06.812Z,19.88
2018-09-03T08:20:35.443Z,20.32
2018-09-03T08:23:04.080Z,20.07
2018-09-03T08:25:32.722Z,19.74
2018-09-03T08:28:01.492Z,19.85
2018-09-03T08:30:30.335Z,20.18
2018-09-03T08:32:59.019Z,20.15
2018-09-03T08:35:27.753Z,19.89
2018-09-03T08:37:56.566Z,19.68
2018-09-03T08:40:25.163Z,19.89
2018-09-03T08:42:53.792Z,20.06
2018-09-03T08:45:22.407Z,20.12
2018-09-03T08:47:51.076Z,20.85
2018-09-03T08:50:19.750Z,21.03
2018-09-03T08:52:48.396Z,21.35
2018-09-03T08:55:17.133Z,21.07
2018-09-03T08:57:45.811Z,20.54
2018-09-03T09:00:14.531Z,20.71
2018-09-03T09:02:43.135Z,20.61
2018-09-03T09:05:11.863Z,20.76
2018-09-03T09:07:40.815Z,20.80
2018-09-03T09:10:09.701Z,20.91
2018-09-03T09:12:38.970Z,21.37
2018-09-03T09:15:07.888Z,21.36
2018-09-03T09:17:36.546Z,21.37
2018-09-03T09:20:06.552Z,21.85
2018-09-03T09:22:35.238Z,22.17
2018-09-03T09:25:03.941Z,22.12
2018-09-03T09:27:32.594Z,21.71
2018-09-03T09:30:01.576Z,22.10
2018-09-03T09:32:30.539Z,22.01
2018-09-03T09:34:59.574Z,22.14
2018-09-03T09:37:28.522Z,22.23
2018-09-03T09:39:57.162Z,22.60
2018-09-03T09:42:25.854Z,22.72
2018-09-03T09:44:54.481Z,22.66
2018-09-03T09:47:23.178Z,22.33
2018-09-03T09:49:52.681Z,22.43
2018-09-03T09:52:21.710Z,22.31
2018-09-03T09:54:50.459Z,22.66
2018-09-03T09:57:19.362Z,23.11
2018-09-03T09:59:48.804Z,23.47
2018-09-03T10:02:17.461Z,23.15
2018-09-03T10:04:46.077Z,23.13
2018-09-03T10:07:15.042Z,23.41
2018-09-03T10:09:43.648Z,23.40
2018-09-03T10:12:12.274Z,23.28
2018-09-03T10:14:40.920Z,23.33
2018-09-03T10:17:09.626Z,23.62
2018-09-03T10:19:38.249Z,23.79
2018-09-03T10:22:07.101Z,23.83
2018-09-03T10:24:35.730Z,23.64
2018-09-03T10:27:04.430Z,23.82
2018-09-03T10:29:33.171Z,24.07
2018-09-03T10:32:02.011Z,24.05
2018-09-03T10:34:30.630Z,24.17
2018-09-03T10:36:59.232Z,24.17
2018-09-03T10:39:27.860Z,24.44
2018-09-03T10:41:56.531Z,24.14
2018-09-03T10:44:25.241Z,24.11
2018-09-03T10:46:53.908Z,24.23
2018-09-03T10:49:22.469Z,24.02
2018-09-03T10:51:51.122Z,24.22
2018-09-03T10:54:19.751Z,24.52
2018-09-03T10:56:48.453Z,24.54
2018-09-03T10:59:17.103Z,24.65
2018-09-03T11:01:45.752Z,24.80
2018-09-03T11:04:14.455Z,24.61
2018-09-03T11:06:43.328Z,25.01
2018-09-03T11:09:12.467Z,25.38
2018-09-03T11:11:41.391Z,24.72
2018-09-03T11:14:10.185Z,24.48
2018-09-03T11:16:38.846Z,23.97
2018-09-03T11:19:07.549Z,24.36
2018-09-03T11:21:36.386Z,24.67
2018-09-03T11:24:05.085Z,24.98
2018-09-03T11:26:33.752Z,25.30
2018-09-03T11:29:02.376Z,25.50
2018-09-03T11:31:31.091Z,25.29
2018-09-03T11:33:59.790Z,25.63
2018-09-03T11:36:28.432Z,25.54
2018-09-03T11:38:57.157Z,25.24
2018-09-03T11:41:25.926Z,25.11
2018-09-03T11:43:55.105Z,25.58
2018-09-03T11:46:23.751Z,26.07
2018-09-03T11:48:52.718Z,25.99
2018-09-03T11:51:21.657Z,26.14
2018-09-03T11:53:50.390Z,26.02
2018-09-03T11:56:19.098Z,25.90
2018-09-03T11:58:47.729Z,26.30
2018-09-03T12:01:16.569Z,26.33
2018-09-03T12:03:45.177Z,26.65
2018-09-03T12:06:13.795Z,26.99
2018-09-03T12:08:42.393Z,27.74
2018-09-03T12:11:11.015Z,27.47
2018-09-03T12:13:39.665Z,27.46
2018-09-03T12:16:12.301Z,26.77
2018-09-03T12:18:42.131Z,27.32
2018-09-03T12:21:11.666Z,26.67
2018-09-03T12:23:40.609Z,26.98
2018-09-03T12:26:09.789Z,26.84
2018-09-03T12:28:38.396Z,27.07
2018-09-03T12:31:07.339Z,26.59
2018-09-03T12:33:36.013Z,26.64
2018-09-03T12:36:05.613Z,26.97
2018-09-03T12:38:34.716Z,27.13
2018-09-03T12:41:03.481Z,27.77
2018-09-03T12:43:32.217Z,27.83
2018-09-03T12:46:02.161Z,28.50
2018-09-03T12:48:31.690Z,30.42
2018-09-03T12:51:01.298Z,28.64
2018-09-03T12:53:30.632Z,28.36
2018-09-03T12:55:59.290Z,28.45
2018-09-03T12:58:27.885Z,28.52
2018-09-03T13:00:56.606Z,27.28
2018-09-03T13:03:26.195Z,27.67
2018-09-03T13:05:54.908Z,27.46
2018-09-03T13:08:23.581Z,26.57
2018-09-03T13:10:52.215Z,26.80
2018-09-03T13:13:21.191Z,27.85
2018-09-03T13:15:49.871Z,28.79
2018-09-03T13:18:18.535Z,29.64
2018-09-03T13:20:47.637Z,29.71
2018-09-03T13:23:16.306Z,29.80
2018-09-03T13:25:44.915Z,29.66
2018-09-03T13:28:13.983Z,28.81
2018-09-03T13:30:42.582Z,28.49
2018-09-03T13:33:11.206Z,28.78
2018-09-03T13:35:39.859Z,28.48
2018-09-03T13:38:08.515Z,29.75
2018-09-03T13:40:37.427Z,30.27
2018-09-03T13:43:06.269Z,28.45
2018-09-03T13:45:34.973Z,28.79
2018-09-03T13:48:03.593Z,28.90
2018-09-03T13:50:32.196Z,27.82
2018-09-03T13:53:02.300Z,27.77
2018-09-03T13:55:31.350Z,27.86
2018-09-03T13:57:59.987Z,28.57
2018-09-03T14:00:28.880Z,27.98
2018-09-03T14:02:59.806Z,27.77
2018-09-03T14:05:28.446Z,28.14
2018-09-03T14:07:57.071Z,28.68
2018-09-03T14:10:25.717Z,28.72
2018-09-03T14:12:55.101Z,28.45
2018-09-03T14:15:24.620Z,29.40
2018-09-03T14:17:53.298Z,29.57
2018-09-03T14:20:22.148Z,28.61
2018-09-03T14:22:50.817Z,29.49
2018-09-03T14:25:19.497Z,28.37
2018-09-03T14:27:48.108Z,28.53
2018-09-03T14:30:16.776Z,27.86
2018-09-03T14:32:45.474Z,27.83
2018-09-03T14:35:14.152Z,27.79
2018-09-03T14:37:42.852Z,26.97
2018-09-03T14:40:11.505Z,27.13
2018-09-03T14:42:40.423Z,27.32
2018-09-03T14:45:09.361Z,27.11
2018-09-03T14:47:38.002Z,27.19
2018-09-03T14:50:07.017Z,27.49
2018-09-03T14:52:35.646Z,28.04
2018-09-03T14:55:04.403Z,27.51
2018-09-03T14:57:33.044Z,27.66
2018-09-03T15:00:01.881Z,27.54
2018-09-03T15:02:30.501Z,28.09
2018-09-03T15:04:59.205Z,27.50
2018-09-03T15:07:27.819Z,28.30
2018-09-03T15:09:56.474Z,28.30
2018-09-03T15:12:25.152Z,28.24
2018-09-03T15:14:53.780Z,28.38
2018-09-03T15:17:22.415Z,29.49
2018-09-03T15:19:51.089Z,29.47
2018-09-03T15:22:19.858Z,28.06
2018-09-03T15:24:48.515Z,28.26
2018-09-03T15:27:17.176Z,28.17
2018-09-03T15:29:45.880Z,28.36
2018-09-03T15:32:14.523Z,28.97
2018-09-03T15:34:43.169Z,28.81
2018-09-03T15:37:11.825Z,28.21
2018-09-03T15:39:40.570Z,28.74
2018-09-03T15:42:09.264Z,28.33
2018-09-03T15:44:37.909Z,28.50
2018-09-03T15:47:06.749Z,28.75
2018-09-03T15:49:35.724Z,28.53
2018-09-03T15:52:04.474Z,29.30
2018-09-03T15:54:33.204Z,29.56
2018-09-03T15:57:04.894Z,29.75
2018-09-03T15:59:34.077Z,29.14
2018-09-03T16:02:02.890Z,28.27
2018-09-03T16:04:31.511Z,28.03
2018-09-03T16:07:00.191Z,27.85
2018-09-03T16:09:28.836Z,27.32
2018-09-03T16:11:57.653Z,27.53
2018-09-03T16:14:26.308Z,26.93
2018-09-03T16:16:55.096Z,26.58
2018-09-03T16:19:23.856Z,26.46
2018-09-03T16:21:52.659Z,26.59
2018-09-03T16:24:21.425Z,26.61
2018-09-03T16:26:50.868Z,26.66
2018-09-03T16:29:19.518Z,26.70
2018-09-03T16:31:48.208Z,26.49
2018-09-03T16:34:16.782Z,27.12
2018-09-03T16:36:45.539Z,27.33
2018-09-03T16:39:14.239Z,27.24
2018-09-03T16:41:43.008Z,26.79
2018-09-03T16:44:11.717Z,26.59
2018-09-03T16:46:40.725Z,26.76
2018-09-03T16:49:09.478Z,27.00
2018-09-03T16:51:38.070Z,26.82
2018-09-03T16:54:06.887Z,26.44
2018-09-03T16:56:35.829Z,26.56
2018-09-03T16:59:04.537Z,26.63
2018-09-03T17:01:33.818Z,26.23
2018-09-03T17:04:02.189Z,26.20
2018-09-03T17:06:31.109Z,26.18
2018-09-03T17:08:59.773Z,26.04
2018-09-03T17:11:28.443Z,25.91
2018-09-03T17:13:57.345Z,25.80
2018-09-03T17:16:26.245Z,25.53
2018-09-03T17:18:54.898Z,25.21
2018-09-03T17:21:23.678Z,25.20
2018-09-03T17:23:53.150Z,25.21
2018-09-03T17:26:21.923Z,25.12
2018-09-03T17:28:50.735Z,25.06
2018-09-03T17:31:20.083Z,25.01
2018-09-03T17:33:48.696Z,24.77
2018-09-03T17:36:17.398Z,24.67
2018-09-03T17:38:46.113Z,24.42
2018-09-03T17:41:14.722Z,24.25
2018-09-03T17:43:43.528Z,24.27
2018-09-03T17:46:12.311Z,24.16
2018-09-03T17:48:41.081Z,24.07
2018-09-03T17:51:09.778Z,23.85
2018-09-03T17:53:38.497Z,23.87
2018-09-03T17:56:07.262Z,23.75
2018-09-03T17:58:35.965Z,23.94
2018-09-03T18:01:04.959Z,23.72
2018-09-03T18:03:33.739Z,23.59
2018-09-03T18:06:02.742Z,23.40
2018-09-03T18:08:31.649Z,23.32
2018-09-03T18:11:00.449Z,23.11
2018-09-03T18:13:29.123Z,23.00
2018-09-03T18:15:57.791Z,22.88
2018-09-03T18:18:26.579Z,22.82
2018-09-03T18:20:55.181Z,22.85
2018-09-03T18:23:23.840Z,22.98
2018-09-03T18:25:52.499Z,23.07
2018-09-03T18:28:21.105Z,22.98
2018-09-03T18:30:49.965Z,22.66
2018-09-03T18:33:18.619Z,22.52
2018-09-03T18:35:47.330Z,22.62
2018-09-03T18:38:16.069Z,22.48
2018-09-03T18:40:44.812Z,22.46
2018-09-03T18:43:13.496Z,22.49
2018-09-03T18:45:42.188Z,22.33
2018-09-03T18:48:10.905Z,22.13
2018-09-03T18:50:39.648Z,22.00
2018-09-03T18:53:09.101Z,21.81
2018-09-03T18:55:37.790Z,21.75
2018-09-03T18:58:06.557Z,21.84
2018-09-03T19:00:35.780Z,21.84
2018-09-03T19:03:04.451Z,21.68
2018-09-03T19:05:33.088Z,21.54
2018-09-03T19:08:01.769Z,21.55
2018-09-03T19:10:30.457Z,21.46
2018-09-03T19:12:59.213Z,21.32
2018-09-03T19:15:27.869Z,21.31
2018-09-03T19:17:56.857Z,21.38
2018-09-03T19:20:25.612Z,21.51
2018-09-03T19:22:54.271Z,21.44
2018-09-03T19:25:22.982Z,21.27
2018-09-03T19:27:51.708Z,21.08
2018-09-03T19:30:20.619Z,20.96
2018-09-03T19:32:49.340Z,20.97
2018-09-03T19:35:18.043Z,20.91
2018-09-03T19:37:46.764Z,20.83
2018-09-03T19:40:15.602Z,20.82
2018-09-03T19:42:44.263Z,20.79
2018-09-03T19:45:12.946Z,20.74
2018-09-03T19:47:41.595Z,20.69
2018-09-03T19:50:10.330Z,20.78
2018-09-03T19:52:38.979Z,20.80
2018-09-03T19:55:07.629Z,20.74
2018-09-03T19:57:36.510Z,20.73
2018-09-03T20:00:05.213Z,20.79
2018-09-03T20:02:33.823Z,21.07
2018-09-03T20:05:02.728Z,21.26
2018-09-03T20:07:31.502Z,21.14
2018-09-03T20:10:00.120Z,21.08
2018-09-03T20:12:28.854Z,21.22
2018-09-03T20:14:57.717Z,21.33
2018-09-03T20:17:26.441Z,21.38
2018-09-03T20:19:55.118Z,21.33
2018-09-03T20:22:24.984Z,21.50
2018-09-03T20:24:53.862Z,21.51
2018-09-03T20:27:22.488Z,21.53
2018-09-03T20:29:51.231Z,21.46
2018-09-03T20:32:19.885Z,21.58
2018-09-03T20:34:48.705Z,21.58
2018-09-03T20:37:17.668Z,21.58
2018-09-03T20:39:46.315Z,21.52
2018-09-03T20:42:14.924Z,21.44
2018-09-03T20:44:43.664Z,21.41
2018-09-03T20:47:12.271Z,21.35
2018-09-03T20:49:40.872Z,21.33
2018-09-03T20:52:09.559Z,21.43
2018-09-03T20:54:38.180Z,21.42
2018-09-03T20:57:06.843Z,21.42
2018-09-03T20:59:35.486Z,21.32
2018-09-03T21:02:04.199Z,21.32
2018-09-03T21:04:32.863Z,21.28
2018-09-03T21:07:01.851Z,21.16
2018-09-03T21:09:30.538Z,21.28
2018-09-03T21:11:59.209Z,21.06
2018-09-03T21:14:27.832Z,21.00
2018-09-03T21:16:56.443Z,21.07
2018-09-03T21:19:25.168Z,20.96
2018-09-03T21:21:53.945Z,21.07
2018-09-03T21:24:22.568Z,21.08
2018-09-03T21:26:51.211Z,21.02
2018-09-03T21:29:19.869Z,20.91
2018-09-03T21:31:48.838Z,21.02
2018-09-03T21:34:17.515Z,21.11
2018-09-03T21:36:46.843Z,21.18
2018-09-03T21:39:15.531Z,21.18
2018-09-03T21:41:44.733Z,21.20
2018-09-03T21:44:13.601Z,20.86
2018-09-03T21:46:42.190Z,21.02
2018-09-03T21:49:10.931Z,21.14
2018-09-03T21:51:40.032Z,20.98
2018-09-03T21:54:08.731Z,20.95
2018-09-03T21:56:37.416Z,20.92
2018-09-03T21:59:06.157Z,20.81
2018-09-03T22:01:34.796Z,20.85
2018-09-03T22:04:03.916Z,20.78
2018-09-03T22:06:32.847Z,20.84
2018-09-03T22:09:01.880Z,20.83
2018-09-03T22:11:30.560Z,20.80
2018-09-03T22:13:59.190Z,20.80
2018-09-03T22:16:27.972Z,20.85
2018-09-03T22:18:56.690Z,21.07
2018-09-03T22:21:25.608Z,20.99
2018-09-03T22:23:54.192Z,20.95
2018-09-03T22:26:22.805Z,21.07
2018-09-03T22:28:51.641Z,21.02
2018-09-03T22:31:20.311Z,20.96
2018-09-03T22:33:48.928Z,20.98
2018-09-03T22:36:17.528Z,21.11
2018-09-03T22:38:46.151Z,21.01
2018-09-03T22:41:14.778Z,20.88
2018-09-03T22:43:43.366Z,20.79
2018-09-03T22:46:12.107Z,20.76
2018-09-03T22:48:40.722Z,20.71
2018-09-03T22:51:09.378Z,20.89
2018-09-03T22:53:38.019Z,20.95
2018-09-03T22:56:06.670Z,20.79
2018-09-03T22:58:35.294Z,20.87
2018-09-03T23:01:04.031Z,20.97
2018-09-03T23:03:32.630Z,20.64
2018-09-03T23:06:01.357Z,20.52
2018-09-03T23:08:30.039Z,20.29
2018-09-03T23:10:58.649Z,20.39
2018-09-03T23:13:27.429Z,20.32
2018-09-03T23:15:56.085Z,20.50
2018-09-03T23:18:25.110Z,20.32
2018-09-03T23:20:53.736Z,20.24
2018-09-03T23:23:22.351Z,20.16
2018-09-03T23:25:51.059Z,20.40
2018-09-03T23:28:19.757Z,20.40
2018-09-03T23:30:48.594Z,20.28
2018-09-03T23:33:17.211Z,19.99
2018-09-03T23:35:45.920Z,20.00
2018-09-03T23:38:14.591Z,20.15
2018-09-03T23:40:43.324Z,20.17
2018-09-03T23:43:11.922Z,20.01
2018-09-03T23:45:40.537Z,19.83
2018-09-03T23:48:09.477Z,19.78
2018-09-03T23:50:38.198Z,19.86
2018-09-03T23:53:06.904Z,19.73
2018-09-03T23:55:35.648Z,19.58
2018-09-03T23:58:04.262Z,19.49
